Date,TemperatureHighF,TemperatureAvgF,TemperatureLowF,DewpointHighF,DewpointAvgF,DewpointLowF,HumidityHigh,HumidityAvg,HumidityLow,PressureMaxIn,PressureMinIn,WindSpeedMaxMPH,WindSpeedAvgMPH,GustSpeedMaxMPH,PrecipitationSumIn
2013-6-1,93.0,76.6,64.0,48.0,44.7,39.0,51,34,18,29.89,29.81,21,8,22,0.00
2013-6-2,93.0,93.0,93.0,45.0,45.0,45.0,18,18,18,29.81,29.81,8,8,0,0.00
2013-6-3,84.0,73.5,61.0,57.0,52.8,50.0,77,51,30,29.74,29.69,10,6,0,0.00
2013-6-4,91.0,80.9,64.0,57.0,53.8,50.0,63,40,27,29.86,29.74,13,8,16,0.00
2013-6-5,88.0,70.1,55.0,57.0,54.2,50.0,87,59,35,29.97,29.82,13,6,16,0.00
2013-6-6,93.0,71.8,55.0,61.0,55.7,52.0,87,60,31,29.92,29.76,12,5,0,0.00
2013-6-7,106.0,79.3,57.0,66.0,57.7,48.0,87,54,14,29.86,29.68,16,4,0,0.00
2013-6-8,106.0,90.9,75.0,70.0,58.7,54.0,64,36,21,29.71,29.61,23,9,33,0.00
2013-6-9,86.0,76.3,64.0,57.0,53.8,52.0,67,46,34,29.82,29.65,20,10,23,0.00
2013-6-10,72.0,65.5,59.0,55.0,53.5,52.0,77,65,52,29.95,29.75,17,9,24,0.00
2013-6-11,84.0,69.7,55.0,55.0,53.2,48.0,87,58,28,29.97,29.85,10,4,0,0.00
2013-6-12,90.0,72.6,55.0,57.0,48.9,36.0,87,49,18,29.94,29.85,16,6,20,0.00
2013-6-13,86.0,72.0,54.0,48.0,43.0,39.0,76,38,19,30.07,29.92,17,6,23,0.00
2013-6-14,88.0,77.2,64.0,48.0,38.3,34.0,48,25,14,29.97,29.79,27,12,32,0.00
2013-6-15,90.0,71.9,52.0,54.0,48.0,37.0,81,47,21,29.90,29.78,13,4,16,0.00
2013-6-16,95.0,72.6,54.0,55.0,49.3,41.0,87,49,15,30.03,29.90,15,4,16,0.00
2013-6-17,90.0,73.2,55.0,54.0,47.8,41.0,76,45,18,30.02,29.93,20,8,21,0.00
2013-6-18,82.0,69.5,57.0,52.0,45.7,36.0,82,46,19,29.97,29.88,18,8,22,0.00
2013-6-19,81.0,67.1,52.0,48.0,43.9,41.0,71,45,25,30.05,29.94,14,4,16,0.00
2013-6-20,84.0,65.1,55.0,48.0,45.8,43.0,76,53,26,29.98,29.90,17,6,20,0.00
2013-6-21,90.0,88.5,88.0,45.0,39.0,32.0,22,17,13,29.93,29.88,10,8,16,0.00
2013-6-22,93.0,84.7,66.0,52.0,46.8,41.0,46,28,18,29.90,29.77,18,8,27,0.00
2013-6-23,79.0,69.5,59.0,61.0,55.0,48.0,82,60,41,29.82,29.74,21,8,25,0.00
2013-6-24,66.0,64.1,61.0,61.0,57.9,55.0,82,80,72,29.89,29.79,14,10,17,0.00
2013-6-25,75.0,68.0,61.0,64.0,63.0,61.0,100,86,69,29.97,29.90,15,10,24,0.00